createdAt,value
2022-12-17T01:51:51.451Z,49.38
2022-12-17T01:54:37.962Z,53.50
2022-12-17T01:57:26.075Z,55.67
2022-12-17T02:00:19.154Z,52.42
2022-12-17T02:03:05.343Z,46.50
2022-12-17T02:06:14.687Z,55.83
2022-12-17T02:09:28.251Z,50.63
2022-12-17T02:12:30.086Z,50.42
2022-12-17T02:15:54.703Z,42.75
2022-12-17T02:18:48.258Z,39.95
2022-12-17T02:21:38.381Z,45.15
2022-12-17T02:24:38.520Z,42.40
2022-12-17T02:27:28.200Z,39.88
2022-12-17T02:30:22.220Z,36.22
2022-12-17T02:33:10.201Z,38.92
2022-12-17T02:36:17.960Z,41.03
2022-12-17T02:39:04.085Z,40.22
2022-12-17T02:41:57.361Z,38.35
2022-12-17T02:44:48.037Z,35.38
2022-12-17T02:47:35.845Z,35.00
2022-12-17T02:50:28.612Z,38.50
2022-12-17T02:53:18.277Z,35.83
2022-12-17T02:56:05.039Z,37.15
2022-12-17T02:58:54.055Z,38.65
2022-12-17T03:01:40.543Z,44.13
2022-12-17T03:04:26.758Z,48.53
2022-12-17T03:07:15.349Z,51.00
2022-12-17T03:10:02.060Z,46.05
2022-12-17T03:12:51.490Z,47.60
2022-12-17T03:15:37.474Z,45.22
2022-12-17T03:18:23.470Z,45.50
2022-12-17T03:21:12.365Z,45.25
2022-12-17T03:23:58.432Z,44.67
2022-12-17T03:26:44.483Z,43.75
2022-12-17T03:29:30.632Z,45.53
2022-12-17T03:32:16.638Z,46.85
2022-12-17T03:35:02.649Z,47.17
2022-12-17T03:37:48.587Z,42.83
2022-12-17T03:40:35.254Z,39.38
2022-12-17T03:43:28.519Z,42.42
2022-12-17T03:46:18.687Z,36.83
2022-12-17T03:49:04.882Z,42.95
2022-12-17T03:51:50.891Z,40.90
2022-12-17T03:54:38.196Z,36.85
2022-12-17T03:57:24.242Z,39.33
2022-12-17T04:00:10.208Z,40.05
2022-12-17T04:02:59.155Z,35.95
2022-12-17T04:05:45.374Z,32.97
2022-12-17T04:08:34.402Z,34.22
2022-12-17T04:11:20.957Z,38.60
2022-12-17T04:14:07.021Z,28.73
2022-12-17T04:16:52.985Z,29.95
2022-12-17T04:19:39.084Z,29.75
2022-12-17T04:22:25.388Z,31.30
2022-12-17T04:25:11.329Z,27.73
2022-12-17T04:27:57.182Z,26.77
2022-12-17T04:30:46.041Z,24.73
2022-12-17T04:33:32.011Z,21.33
2022-12-17T04:36:18.106Z,27.33
2022-12-17T04:39:04.231Z,23.90
2022-12-17T04:41:50.349Z,28.00
2022-12-17T04:44:36.510Z,23.40
2022-12-17T04:47:22.544Z,24.67
2022-12-17T04:50:08.675Z,28.08
2022-12-17T04:52:54.765Z,24.25
2022-12-17T04:55:40.670Z,23.40
2022-12-17T04:58:26.691Z,30.63
2022-12-17T05:01:14.394Z,28.00
2022-12-17T05:04:00.525Z,33.03
2022-12-17T05:06:46.774Z,25.20
2022-12-17T05:09:36.704Z,28.63
2022-12-17T05:12:32.622Z,28.33
2022-12-17T05:15:18.725Z,30.73
2022-12-17T05:18:04.741Z,29.20
2022-12-17T05:20:50.574Z,24.33
2022-12-17T05:23:38.671Z,24.08
2022-12-17T05:26:37.042Z,23.08
2022-12-17T05:29:23.152Z,21.05
2022-12-17T05:32:09.927Z,18.33
2022-12-17T05:34:55.872Z,22.58
2022-12-17T05:37:44.598Z,21.15
2022-12-17T05:40:32.145Z,22.35
2022-12-17T05:43:24.294Z,26.25
2022-12-17T05:46:13.316Z,23.92
2022-12-17T05:49:02.698Z,21.98
2022-12-17T05:51:49.606Z,21.92
2022-12-17T05:54:39.028Z,26.50
2022-12-17T05:57:35.825Z,41.40
2022-12-17T06:00:22.601Z,24.35
2022-12-17T06:03:16.934Z,19.95
2022-12-17T06:06:06.614Z,18.67
2022-12-17T06:08:52.998Z,20.42
2022-12-17T06:11:40.129Z,19.73
2022-12-17T06:14:26.583Z,21.88
2022-12-17T06:18:04.959Z,21.65
2022-12-17T06:21:05.752Z,20.02
2022-12-17T06:24:32.672Z,23.05
2022-12-17T06:27:29.532Z,25.58
2022-12-17T06:30:40.484Z,21.03
2022-12-17T06:33:44.010Z,21.83
2022-12-17T06:36:33.602Z,23.70
2022-12-17T06:39:20.554Z,20.63
2022-12-17T06:42:06.916Z,25.08
2022-12-17T06:44:53.206Z,19.08
2022-12-17T06:47:47.435Z,25.23
2022-12-17T06:50:33.710Z,22.70
2022-12-17T07:14:40.426Z,38.30
2022-12-17T07:22:01.046Z,35.92
2022-12-17T07:27:57.540Z,30.73
2022-12-17T07:35:41.868Z,27.92
2022-12-17T07:37:21.138Z,25.92
2022-12-17T08:07:02.834Z,54.33
2022-12-17T12:00:30.822Z,40.88
2022-12-17T12:22:36.545Z,32.78
2022-12-17T12:25:37.609Z,32.35
2022-12-17T12:28:49.713Z,36.95
2022-12-17T12:31:41.759Z,38.80
2022-12-17T12:34:32.666Z,32.42
2022-12-17T12:37:21.967Z,37.38
2022-12-17T12:40:21.010Z,35.00
2022-12-17T12:43:19.641Z,33.88
2022-12-17T12:46:16.734Z,30.35
2022-12-17T12:49:08.770Z,35.33
2022-12-17T12:51:56.327Z,33.65
2022-12-17T12:54:49.769Z,31.98
2022-12-17T12:57:51.360Z,31.85
2022-12-17T13:00:58.220Z,29.05
2022-12-17T13:03:52.009Z,28.65
2022-12-17T13:06:40.580Z,31.35
2022-12-17T13:09:18.108Z,29.25
2022-12-17T13:12:18.012Z,33.30
2022-12-17T13:14:54.851Z,26.50
2022-12-17T13:17:38.794Z,31.33
2022-12-17T13:20:30.398Z,32.85
2022-12-17T13:23:10.175Z,36.22
2022-12-17T13:25:38.346Z,34.13
2022-12-17T13:28:25.925Z,30.52
2022-12-17T13:31:03.821Z,35.72
2022-12-17T13:33:51.129Z,30.02
2022-12-17T13:36:33.813Z,27.35
2022-12-17T13:39:28.515Z,30.52
2022-12-17T13:41:56.584Z,33.05
2022-12-17T13:44:26.689Z,35.38
2022-12-17T13:46:54.737Z,35.17
2022-12-17T13:49:30.955Z,26.85
2022-12-17T13:52:11.782Z,28.33
2022-12-17T13:54:42.375Z,28.30
2022-12-17T13:57:14.418Z,32.67
2022-12-17T13:59:49.369Z,26.15
2022-12-17T14:02:30.474Z,29.80
2022-12-17T14:05:07.380Z,34.33
2022-12-17T14:07:39.197Z,35.22
2022-12-17T14:10:18.219Z,29.70
2022-12-17T14:12:47.357Z,25.08
2022-12-17T14:15:28.339Z,28.95
2022-12-17T14:17:56.896Z,27.02
2022-12-17T14:20:26.739Z,27.70
2022-12-17T14:22:56.388Z,24.42
2022-12-17T14:25:32.272Z,29.35
2022-12-17T14:28:35.133Z,23.08
2022-12-17T14:31:26.807Z,25.35
2022-12-17T14:34:08.366Z,25.02
2022-12-17T14:36:38.573Z,24.70
2022-12-17T14:39:24.094Z,23.80
2022-12-17T14:42:10.964Z,24.20
2022-12-17T14:44:51.364Z,20.98
2022-12-17T14:47:26.667Z,22.05
2022-12-17T14:49:58.710Z,24.55
2022-12-17T14:52:46.311Z,23.55
2022-12-17T14:55:27.721Z,23.73
2022-12-17T14:58:14.160Z,25.55
2022-12-17T15:00:43.296Z,23.75
2022-12-17T15:03:19.915Z,23.40
2022-12-17T15:05:52.542Z,22.35
2022-12-17T15:08:20.902Z,25.08
2022-12-17T15:10:48.656Z,24.40
2022-12-17T15:13:16.215Z,23.75
2022-12-17T15:15:44.971Z,27.77
2022-12-17T15:18:15.193Z,26.90
2022-12-17T15:20:43.524Z,25.38
2022-12-17T15:23:17.937Z,23.58
2022-12-17T15:25:47.530Z,26.42
2022-12-17T15:28:15.996Z,28.05
2022-12-17T15:30:44.249Z,29.77
2022-12-17T15:33:12.052Z,27.67
2022-12-17T15:35:40.165Z,30.63
2022-12-17T15:38:08.213Z,29.25
2022-12-17T15:40:39.274Z,29.13
2022-12-17T15:43:11.660Z,31.23
2022-12-17T15:45:40.138Z,29.67
2022-12-17T15:48:10.078Z,27.63
2022-12-17T15:50:38.410Z,28.15
2022-12-17T15:53:06.266Z,26.98
2022-12-17T15:55:34.065Z,27.10
2022-12-17T15:58:01.808Z,22.70
2022-12-17T16:00:29.593Z,25.60
2022-12-17T16:03:02.496Z,23.67
2022-12-17T16:05:30.342Z,25.95
2022-12-17T16:08:02.221Z,22.48
2022-12-17T16:10:30.305Z,23.48
2022-12-17T16:12:58.366Z,23.27
2022-12-17T16:15:25.974Z,29.13
2022-12-17T16:17:53.722Z,31.95
2022-12-17T16:20:22.710Z,29.85
2022-12-17T16:22:50.321Z,30.25
2022-12-17T16:25:20.713Z,27.17
2022-12-17T16:27:48.215Z,28.25
2022-12-17T16:30:15.788Z,27.15
2022-12-17T16:32:43.284Z,27.08
2022-12-17T16:35:10.885Z,27.38
2022-12-17T16:37:38.386Z,28.98
2022-12-17T16:40:06.531Z,29.13
2022-12-17T16:42:36.595Z,33.60
2022-12-17T16:45:04.481Z,33.28
2022-12-17T16:47:32.561Z,30.27
